sensor_id;sensor_type;location;lat;lon;timestamp;pressure;altitude;pressure_sealevel;temperature;humidity
46534;BME280;32260;52.008;4.752;2022-12-05T00:04:12;101950.69;;;5.49;68.31
46534;BME280;32260;52.008;4.752;2022-12-05T00:06:39;101950.81;;;5.55;68.07
46534;BME280;32260;52.008;4.752;2022-12-05T00:09:07;101953.47;;;5.57;68.26
46534;BME280;32260;52.008;4.752;2022-12-05T00:11:37;101951.69;;;5.56;68.39
46534;BME280;32260;52.008;4.752;2022-12-05T00:14:04;101948.19;;;5.57;68.37
46534;BME280;32260;52.008;4.752;2022-12-05T00:16:32;101942.91;;;5.55;68.52
46534;BME280;32260;52.008;4.752;2022-12-05T00:19:01;101947.31;;;5.56;68.55
46534;BME280;32260;52.008;4.752;2022-12-05T00:21:31;101943.00;;;5.60;68.28
46534;BME280;32260;52.008;4.752;2022-12-05T00:23:59;101946.47;;;5.57;68.58
46534;BME280;32260;52.008;4.752;2022-12-05T00:26:26;101949.16;;;5.60;68.12
46534;BME280;32260;52.008;4.752;2022-12-05T00:28:53;101951.72;;;5.57;68.40
46534;BME280;32260;52.008;4.752;2022-12-05T00:31:21;101952.59;;;5.56;68.50
46534;BME280;32260;52.008;4.752;2022-12-05T00:33:48;101953.44;;;5.55;68.40
46534;BME280;32260;52.008;4.752;2022-12-05T00:36:17;101953.41;;;5.54;68.22
46534;BME280;32260;52.008;4.752;2022-12-05T00:38:44;101952.56;;;5.55;68.50
46534;BME280;32260;52.008;4.752;2022-12-05T00:41:14;101951.69;;;5.56;68.46
46534;BME280;32260;52.008;4.752;2022-12-05T00:43:41;101945.56;;;5.55;68.66
46534;BME280;32260;52.008;4.752;2022-12-05T00:46:09;101947.31;;;5.56;68.77
46534;BME280;32260;52.008;4.752;2022-12-05T00:48:36;101949.97;;;5.56;68.63
46534;BME280;32260;52.008;4.752;2022-12-05T00:51:07;101945.66;;;5.61;68.53
46534;BME280;32260;52.008;4.752;2022-12-05T00:53:34;101950.09;;;5.64;68.64
46534;BME280;32260;52.008;4.752;2022-12-05T00:56:03;101950.94;;;5.63;68.81
46534;BME280;32260;52.008;4.752;2022-12-05T00:58:31;101960.69;;;5.67;68.62
46534;BME280;32260;52.008;4.752;2022-12-05T01:01:04;101955.47;;;5.70;68.30
46534;BME280;32260;52.008;4.752;2022-12-05T01:03:30;101952.00;;;5.73;68.29
46534;BME280;32260;52.008;4.752;2022-12-05T01:05:58;101958.13;;;5.72;68.67
46534;BME280;32260;52.008;4.752;2022-12-05T01:08:24;101950.28;;;5.73;68.34
46534;BME280;32260;52.008;4.752;2022-12-05T01:10:52;101950.19;;;5.70;68.53
46534;BME280;32260;52.008;4.752;2022-12-05T01:13:19;101943.97;;;5.65;68.80
46534;BME280;32260;52.008;4.752;2022-12-05T01:15:46;101944.91;;;5.67;68.58
46534;BME280;32260;52.008;4.752;2022-12-05T01:18:12;101952.81;;;5.69;68.73
46534;BME280;32260;52.008;4.752;2022-12-05T01:20:40;101948.50;;;5.72;68.56
46534;BME280;32260;52.008;4.752;2022-12-05T01:23:07;101938.75;;;5.68;69.08
46534;BME280;32260;52.008;4.752;2022-12-05T01:25:33;101943.16;;;5.69;68.91
46534;BME280;32260;52.008;4.752;2022-12-05T01:27:59;101940.41;;;5.61;69.56
46534;BME280;32260;52.008;4.752;2022-12-05T01:30:26;101944.84;;;5.65;69.24
46534;BME280;32260;52.008;4.752;2022-12-05T01:32:52;101937.88;;;5.66;69.26
46534;BME280;32260;52.008;4.752;2022-12-05T01:35:18;101948.31;;;5.63;69.68
46534;BME280;32260;52.008;4.752;2022-12-05T01:37:44;101951.91;;;5.68;69.25
46534;BME280;32260;52.008;4.752;2022-12-05T01:40:10;101943.25;;;5.72;69.00
46534;BME280;32260;52.008;4.752;2022-12-05T01:42:37;101958.16;;;5.73;69.15
46534;BME280;32260;52.008;4.752;2022-12-05T01:45:12;101948.53;;;5.75;69.00
46534;BME280;32260;52.008;4.752;2022-12-05T01:47:39;101951.25;;;5.80;68.93
46534;BME280;32260;52.008;4.752;2022-12-05T01:50:05;101953.88;;;5.78;68.77
46534;BME280;32260;52.008;4.752;2022-12-05T01:52:33;101951.28;;;5.83;69.02
46534;BME280;32260;52.008;4.752;2022-12-05T01:55:04;101953.97;;;5.85;69.27
46534;BME280;32260;52.008;4.752;2022-12-05T01:57:31;101949.47;;;5.77;69.65
46534;BME280;32260;52.008;4.752;2022-12-05T02:00:03;101944.31;;;5.83;69.14
46534;BME280;32260;52.008;4.752;2022-12-05T02:02:30;101951.28;;;5.81;69.36
46534;BME280;32260;52.008;4.752;2022-12-05T02:07:35;101939.75;;;5.73;69.82
46534;BME280;32260;52.008;4.752;2022-12-05T02:10:03;101949.47;;;5.77;69.53
46534;BME280;32260;52.008;4.752;2022-12-05T02:12:30;101948.59;;;5.78;69.58
46534;BME280;32260;52.008;4.752;2022-12-05T02:15:05;101950.47;;;5.86;69.71
46534;BME280;32260;52.008;4.752;2022-12-05T02:34:26;101952.31;;;5.90;70.00
46534;BME280;32260;52.008;4.752;2022-12-05T02:39:49;101946.19;;;5.91;69.67
46534;BME280;32260;52.008;4.752;2022-12-05T02:42:27;101951.44;;;5.91;69.97
46534;BME280;32260;52.008;4.752;2022-12-05T02:45:00;101956.66;;;5.89;70.09
46534;BME280;32260;52.008;4.752;2022-12-05T02:47:29;101958.41;;;5.87;70.38
46534;BME280;32260;52.008;4.752;2022-12-05T02:49:56;101953.16;;;5.89;70.48
46534;BME280;32260;52.008;4.752;2022-12-05T02:52:24;101951.44;;;5.91;70.08
46534;BME280;32260;52.008;4.752;2022-12-05T02:54:53;101959.34;;;5.91;70.16
46534;BME280;32260;52.008;4.752;2022-12-05T02:57:21;101958.41;;;5.89;70.62
46534;BME280;32260;52.008;4.752;2022-12-05T02:59:49;101961.13;;;5.93;70.42
46534;BME280;32260;52.008;4.752;2022-12-05T03:02:33;101956.00;;;5.99;70.09
46534;BME280;32260;52.008;4.752;2022-12-05T03:08:09;101962.91;;;5.94;70.55
46534;BME280;32260;52.008;4.752;2022-12-05T03:10:37;101955.22;;;6.07;70.58
46534;BME280;32260;52.008;4.752;2022-12-05T03:13:11;101962.16;;;6.00;70.57
46534;BME280;32260;52.008;4.752;2022-12-05T03:15:44;101963.94;;;6.01;70.28
46534;BME280;32260;52.008;4.752;2022-12-05T03:18:17;101957.75;;;6.01;70.58
46534;BME280;32260;52.008;4.752;2022-12-05T03:21:04;101956.03;;;6.01;70.31
46534;BME280;32260;52.008;4.752;2022-12-05T03:23:38;101954.25;;;6.00;70.39
46534;BME280;32260;52.008;4.752;2022-12-05T03:26:17;101963.94;;;6.01;70.38
46534;BME280;32260;52.008;4.752;2022-12-05T03:32:15;101970.16;;;6.06;70.54
46534;BME280;32260;52.008;4.752;2022-12-05T03:34:52;101969.22;;;6.04;70.77
46534;BME280;32260;52.008;4.752;2022-12-05T03:37:34;101969.28;;;6.06;70.66
46534;BME280;32260;52.008;4.752;2022-12-05T03:42:58;101961.41;;;6.07;70.95
46534;BME280;32260;52.008;4.752;2022-12-05T03:45:31;101971.94;;;6.07;70.80
46534;BME280;32260;52.008;4.752;2022-12-05T03:48:09;101973.75;;;6.11;70.76
46534;BME280;32260;52.008;4.752;2022-12-05T03:50:40;101982.50;;;6.10;70.74
46534;BME280;32260;52.008;4.752;2022-12-05T03:53:15;101980.78;;;6.12;70.90
46534;BME280;32260;52.008;4.752;2022-12-05T03:55:45;101979.00;;;6.11;70.60
46534;BME280;32260;52.008;4.752;2022-12-05T03:58:22;101987.81;;;6.13;71.03
46534;BME280;32260;52.008;4.752;2022-12-05T04:00:52;101982.50;;;6.10;70.71
46534;BME280;32260;52.008;4.752;2022-12-05T04:03:25;101986.97;;;6.16;70.48
46534;BME280;32260;52.008;4.752;2022-12-05T04:06:21;101992.22;;;6.14;70.49
46534;BME280;32260;52.008;4.752;2022-12-05T04:08:53;101988.72;;;6.15;71.10
46534;BME280;32260;52.008;4.752;2022-12-05T04:11:22;101993.28;;;6.26;70.46
46534;BME280;32260;52.008;4.752;2022-12-05T04:13:53;101990.53;;;6.18;70.79
46534;BME280;32260;52.008;4.752;2022-12-05T04:16:24;101997.53;;;6.19;70.87
46534;BME280;32260;52.008;4.752;2022-12-05T04:21:54;101991.44;;;6.20;70.88
46534;BME280;32260;52.008;4.752;2022-12-05T04:24:27;101994.97;;;6.21;70.82
46534;BME280;32260;52.008;4.752;2022-12-05T04:35:29;101995.91;;;6.26;71.04
46534;BME280;32260;52.008;4.752;2022-12-05T04:38:07;101991.50;;;6.25;71.19
46534;BME280;32260;52.008;4.752;2022-12-05T04:40:40;101988.03;;;6.26;71.00
46534;BME280;32260;52.008;4.752;2022-12-05T04:43:10;101986.25;;;6.25;70.73
46534;BME280;32260;52.008;4.752;2022-12-05T04:45:38;101984.47;;;6.24;70.93
46534;BME280;32260;52.008;4.752;2022-12-05T04:48:11;101979.28;;;6.27;70.98
46534;BME280;32260;52.008;4.752;2022-12-05T04:50:39;101988.06;;;6.29;70.96
46534;BME280;32260;52.008;4.752;2022-12-05T04:53:08;101986.28;;;6.28;71.07
46534;BME280;32260;52.008;4.752;2022-12-05T04:55:36;101988.91;;;6.26;71.04
46534;BME280;32260;52.008;4.752;2022-12-05T05:03:26;101992.53;;;6.33;71.01
46534;BME280;32260;52.008;4.752;2022-12-05T05:05:55;101990.69;;;6.30;71.29
46534;BME280;32260;52.008;4.752;2022-12-05T05:08:25;101986.38;;;6.34;71.06
46534;BME280;32260;52.008;4.752;2022-12-05T05:11:12;101981.22;;;6.40;71.02
46534;BME280;32260;52.008;4.752;2022-12-05T05:13:39;101984.69;;;6.38;70.92
46534;BME280;32260;52.008;4.752;2022-12-05T05:16:06;101975.84;;;6.34;71.48
46534;BME280;32260;52.008;4.752;2022-12-05T05:18:32;101981.13;;;6.34;71.79
46534;BME280;32260;52.008;4.752;2022-12-05T05:21:26;101978.56;;;6.40;71.75
46534;BME280;32260;52.008;4.752;2022-12-05T05:24:03;101985.59;;;6.40;71.34
46534;BME280;32260;52.008;4.752;2022-12-05T05:26:32;101992.66;;;6.42;71.45
46534;BME280;32260;52.008;4.752;2022-12-05T05:28:59;101991.75;;;6.40;71.84
46534;BME280;32260;52.008;4.752;2022-12-05T05:31:26;101998.84;;;6.44;71.18
46534;BME280;32260;52.008;4.752;2022-12-05T05:33:53;101997.97;;;6.45;71.22
46534;BME280;32260;52.008;4.752;2022-12-05T05:36:22;101999.75;;;6.46;71.64
46534;BME280;32260;52.008;4.752;2022-12-05T05:38:51;101998.00;;;6.47;71.50
46534;BME280;32260;52.008;4.752;2022-12-05T05:41:20;102003.31;;;6.50;71.47
46534;BME280;32260;52.008;4.752;2022-12-05T05:43:48;102005.97;;;6.52;71.51
46534;BME280;32260;52.008;4.752;2022-12-05T05:46:18;102007.69;;;6.50;71.09
46534;BME280;32260;52.008;4.752;2022-12-05T05:48:45;102002.44;;;6.50;71.74
46534;BME280;32260;52.008;4.752;2022-12-05T05:51:13;101998.09;;;6.53;71.20
46534;BME280;32260;52.008;4.752;2022-12-05T05:53:39;102002.47;;;6.53;71.67
46534;BME280;32260;52.008;4.752;2022-12-05T05:56:09;102000.75;;;6.53;71.65
46534;BME280;32260;52.008;4.752;2022-12-05T05:58:35;102008.66;;;6.55;71.63
46534;BME280;32260;52.008;4.752;2022-12-05T06:01:08;102006.88;;;6.55;71.42
46534;BME280;32260;52.008;4.752;2022-12-05T06:03:35;102007.78;;;6.56;71.54
46534;BME280;32260;52.008;4.752;2022-12-05T06:06:05;102003.41;;;6.56;71.42
46534;BME280;32260;52.008;4.752;2022-12-05T06:08:33;102004.31;;;6.57;71.72
46534;BME280;32260;52.008;4.752;2022-12-05T06:11:03;102004.34;;;6.60;71.21
46534;BME280;32260;52.008;4.752;2022-12-05T06:13:29;102005.25;;;6.60;71.63
46534;BME280;32260;52.008;4.752;2022-12-05T06:15:55;102004.41;;;6.63;71.58
46534;BME280;32260;52.008;4.752;2022-12-05T06:18:21;102002.66;;;6.65;71.62
46534;BME280;32260;52.008;4.752;2022-12-05T06:20:55;102008.84;;;6.69;71.81
46534;BME280;32260;52.008;4.752;2022-12-05T06:23:23;102009.69;;;6.66;71.44
46534;BME280;32260;52.008;4.752;2022-12-05T06:25:52;102001.88;;;6.71;71.44
46534;BME280;32260;52.008;4.752;2022-12-05T06:28:20;102000.09;;;6.70;71.73
46534;BME280;32260;52.008;4.752;2022-12-05T06:30:47;102006.28;;;6.72;71.38
46534;BME280;32260;52.008;4.752;2022-12-05T06:33:14;102007.16;;;6.74;71.30
46534;BME280;32260;52.008;4.752;2022-12-05T06:35:40;102005.44;;;6.74;71.47
46534;BME280;32260;52.008;4.752;2022-12-05T06:38:07;102011.56;;;6.73;71.80
46534;BME280;32260;52.008;4.752;2022-12-05T06:40:34;102009.78;;;6.72;71.65
46534;BME280;32260;52.008;4.752;2022-12-05T06:43:00;102014.22;;;6.75;71.43
46534;BME280;32260;52.008;4.752;2022-12-05T06:45:26;102009.84;;;6.75;71.42
46534;BME280;32260;52.008;4.752;2022-12-05T06:47:52;102011.59;;;6.76;71.84
46534;BME280;32260;52.008;4.752;2022-12-05T06:50:18;102017.78;;;6.78;71.46
46534;BME280;32260;52.008;4.752;2022-12-05T06:52:44;102024.84;;;6.79;71.52
46534;BME280;32260;52.008;4.752;2022-12-05T06:55:10;102023.03;;;6.77;71.84
46534;BME280;32260;52.008;4.752;2022-12-05T06:57:37;102024.84;;;6.79;71.71
46534;BME280;32260;52.008;4.752;2022-12-05T07:00:04;102014.28;;;6.79;71.85
46534;BME280;32260;52.008;4.752;2022-12-05T07:02:51;102023.97;;;6.80;71.99
46534;BME280;32260;52.008;4.752;2022-12-05T07:05:17;102028.34;;;6.82;71.55
46534;BME280;32260;52.008;4.752;2022-12-05T07:07:44;102027.50;;;6.83;71.68
46534;BME280;32260;52.008;4.752;2022-12-05T07:10:10;102033.69;;;6.86;71.46
46534;BME280;32260;52.008;4.752;2022-12-05T07:12:36;102031.06;;;6.88;71.73
46534;BME280;32260;52.008;4.752;2022-12-05T07:15:02;102037.25;;;6.88;71.88
46534;BME280;32260;52.008;4.752;2022-12-05T07:17:29;102037.25;;;6.90;71.87
46534;BME280;32260;52.008;4.752;2022-12-05T07:19:55;102033.78;;;6.91;71.44
46534;BME280;32260;52.008;4.752;2022-12-05T07:22:22;102032.00;;;6.91;71.46
46534;BME280;32260;52.008;4.752;2022-12-05T07:24:50;102037.28;;;6.91;71.67
46534;BME280;32260;52.008;4.752;2022-12-05T07:27:16;102035.53;;;6.92;71.46
46534;BME280;32260;52.008;4.752;2022-12-05T07:29:42;102035.56;;;6.93;71.36
46534;BME280;32260;52.008;4.752;2022-12-05T07:32:08;102042.59;;;6.93;72.01
46534;BME280;32260;52.008;4.752;2022-12-05T07:34:34;102037.31;;;6.93;71.49
46534;BME280;32260;52.008;4.752;2022-12-05T07:37:00;102039.06;;;6.94;71.54
46534;BME280;32260;52.008;4.752;2022-12-05T07:39:27;102040.84;;;6.95;71.60
46534;BME280;32260;52.008;4.752;2022-12-05T07:41:53;102043.53;;;6.98;71.86
46534;BME280;32260;52.008;4.752;2022-12-05T07:44:19;102049.69;;;6.99;71.79
46534;BME280;32260;52.008;4.752;2022-12-05T07:46:45;102054.09;;;7.01;71.42
46534;BME280;32260;52.008;4.752;2022-12-05T07:49:11;102050.63;;;7.02;71.61
46534;BME280;32260;52.008;4.752;2022-12-05T07:51:37;102048.81;;;7.00;72.34
46534;BME280;32260;52.008;4.752;2022-12-05T07:54:04;102051.47;;;7.01;72.01
46534;BME280;32260;52.008;4.752;2022-12-05T07:56:31;102050.69;;;7.07;71.30
46534;BME280;32260;52.008;4.752;2022-12-05T07:58:57;102054.16;;;7.04;71.92
46534;BME280;32260;52.008;4.752;2022-12-05T08:01:25;102059.47;;;7.07;71.83
46534;BME280;32260;52.008;4.752;2022-12-05T08:03:54;102063.88;;;7.10;71.58
46534;BME280;32260;52.008;4.752;2022-12-05T08:06:23;102055.97;;;7.10;72.12
46534;BME280;32260;52.008;4.752;2022-12-05T08:08:52;102060.41;;;7.11;71.84
46534;BME280;32260;52.008;4.752;2022-12-05T08:11:21;102064.81;;;7.13;71.90
46534;BME280;32260;52.008;4.752;2022-12-05T08:13:48;102062.19;;;7.13;72.17
46534;BME280;32260;52.008;4.752;2022-12-05T08:16:17;102064.88;;;7.17;71.59
46534;BME280;32260;52.008;4.752;2022-12-05T08:18:43;102071.03;;;7.17;72.35
46534;BME280;32260;52.008;4.752;2022-12-05T08:21:14;102062.28;;;7.21;71.88
46534;BME280;32260;52.008;4.752;2022-12-05T08:23:41;102059.66;;;7.21;72.22
46534;BME280;32260;52.008;4.752;2022-12-05T08:26:12;102066.75;;;7.25;71.53
46534;BME280;32260;52.008;4.752;2022-12-05T08:28:38;102062.34;;;7.26;71.71
46534;BME280;32260;52.008;4.752;2022-12-05T08:31:08;102061.53;;;7.30;71.86
46534;BME280;32260;52.008;4.752;2022-12-05T08:33:35;102065.94;;;7.31;71.48
46534;BME280;32260;52.008;4.752;2022-12-05T08:36:03;102068.63;;;7.34;71.92
46534;BME280;32260;52.008;4.752;2022-12-05T08:38:30;102069.50;;;7.36;71.65
46534;BME280;32260;52.008;4.752;2022-12-05T08:40:59;102078.31;;;7.35;72.45
46534;BME280;32260;52.008;4.752;2022-12-05T08:43:25;102079.19;;;7.37;71.76
46534;BME280;32260;52.008;4.752;2022-12-05T08:45:52;102076.56;;;7.39;71.68
46534;BME280;32260;52.008;4.752;2022-12-05T08:48:18;102076.63;;;7.40;72.29
46534;BME280;32260;52.008;4.752;2022-12-05T08:50:45;102087.19;;;7.43;71.71
46534;BME280;32260;52.008;4.752;2022-12-05T08:53:11;102081.97;;;7.47;71.79
46534;BME280;32260;52.008;4.752;2022-12-05T08:55:37;102079.34;;;7.47;71.41
46534;BME280;32260;52.008;4.752;2022-12-05T08:58:03;102090.75;;;7.47;71.88
46534;BME280;32260;52.008;4.752;2022-12-05T09:00:30;102086.34;;;7.48;71.61
46534;BME280;32260;52.008;4.752;2022-12-05T09:02:57;102091.69;;;7.51;72.14
46534;BME280;32260;52.008;4.752;2022-12-05T09:05:24;102088.19;;;7.52;72.11
46534;BME280;32260;52.008;4.752;2022-12-05T09:07:50;102098.75;;;7.53;72.03
46534;BME280;32260;52.008;4.752;2022-12-05T09:10:16;102095.25;;;7.56;72.02
46534;BME280;32260;52.008;4.752;2022-12-05T09:12:42;102095.31;;;7.59;72.16
46534;BME280;32260;52.008;4.752;2022-12-05T09:15:10;102097.06;;;7.60;72.15
46534;BME280;32260;52.008;4.752;2022-12-05T09:17:36;102099.75;;;7.61;71.35
46534;BME280;32260;52.008;4.752;2022-12-05T09:20:04;102099.75;;;7.63;71.72
46534;BME280;32260;52.008;4.752;2022-12-05T09:22:30;102106.75;;;7.63;71.44
46534;BME280;32260;52.008;4.752;2022-12-05T09:24:56;102104.19;;;7.67;71.90
46534;BME280;32260;52.008;4.752;2022-12-05T09:27:22;102108.63;;;7.70;71.83
46534;BME280;32260;52.008;4.752;2022-12-05T09:29:48;102103.41;;;7.73;71.28
46534;BME280;32260;52.008;4.752;2022-12-05T09:32:14;102105.19;;;7.75;71.28
46534;BME280;32260;52.008;4.752;2022-12-05T09:34:41;102112.25;;;7.78;71.88
46534;BME280;32260;52.008;4.752;2022-12-05T09:37:07;102113.13;;;7.78;71.72
46534;BME280;32260;52.008;4.752;2022-12-05T09:39:34;102109.66;;;7.83;71.42
46534;BME280;32260;52.008;4.752;2022-12-05T09:48:14;102122.09;;;7.93;71.80
46534;BME280;32260;52.008;4.752;2022-12-05T09:50:33;102128.31;;;7.97;71.38
46534;BME280;32260;52.008;4.752;2022-12-05T09:53:27;102127.50;;;8.04;71.61
46534;BME280;32260;52.008;4.752;2022-12-05T10:09:52;102122.25;;;8.08;70.63
46534;BME280;32260;52.008;4.752;2022-12-05T10:12:41;102121.38;;;8.08;70.83
46534;BME280;32260;52.008;4.752;2022-12-05T10:18:00;102131.88;;;8.03;71.33
46534;BME280;32260;52.008;4.752;2022-12-05T10:20:34;102124.88;;;8.05;70.77
46534;BME280;32260;52.008;4.752;2022-12-05T10:23:13;102129.31;;;8.09;70.82
46534;BME280;32260;52.008;4.752;2022-12-05T10:25:42;102120.47;;;8.06;70.77
46534;BME280;32260;52.008;4.752;2022-12-05T10:28:27;102127.59;;;8.12;70.70
46534;BME280;32260;52.008;4.752;2022-12-05T10:30:59;102131.06;;;8.07;71.12
46534;BME280;32260;52.008;4.752;2022-12-05T10:33:45;102127.53;;;8.08;70.71
46534;BME280;32260;52.008;4.752;2022-12-05T10:36:14;102127.53;;;8.08;71.33
46534;BME280;32260;52.008;4.752;2022-12-05T10:38:42;102130.19;;;8.08;71.24
46534;BME280;32260;52.008;4.752;2022-12-05T10:41:12;102126.66;;;8.08;70.99
46534;BME280;32260;52.008;4.752;2022-12-05T10:43:42;102131.94;;;8.09;71.42
46534;BME280;32260;52.008;4.752;2022-12-05T10:46:13;102125.81;;;8.10;71.17
46534;BME280;32260;52.008;4.752;2022-12-05T10:48:41;102129.31;;;8.09;71.10
46534;BME280;32260;52.008;4.752;2022-12-05T10:51:14;102118.81;;;8.13;70.83
46534;BME280;32260;52.008;4.752;2022-12-05T10:59:13;102126.72;;;8.13;70.72
46534;BME280;32260;52.008;4.752;2022-12-05T11:01:46;102121.44;;;8.14;71.43
46534;BME280;32260;52.008;4.752;2022-12-05T11:04:21;102119.69;;;8.15;70.94
46534;BME280;32260;52.008;4.752;2022-12-05T11:07:04;102119.72;;;8.18;70.82
46534;BME280;32260;52.008;4.752;2022-12-05T11:09:35;102114.41;;;8.13;71.14
46534;BME280;32260;52.008;4.752;2022-12-05T11:12:22;102117.97;;;8.18;70.92
46534;BME280;32260;52.008;4.752;2022-12-05T11:17:40;102112.63;;;8.12;71.57
46534;BME280;32260;52.008;4.752;2022-12-05T11:23:19;102111.75;;;8.15;71.32
46534;BME280;32260;52.008;4.752;2022-12-05T11:25:46;102109.16;;;8.16;71.18
46534;BME280;32260;52.008;4.752;2022-12-05T11:33:34;102119.53;;;8.01;71.89
46534;BME280;32260;52.008;4.752;2022-12-05T11:38:49;102115.19;;;8.04;71.77
46534;BME280;32260;52.008;4.752;2022-12-05T11:47:49;102107.38;;;8.15;71.91
46534;BME280;32260;52.008;4.752;2022-12-05T11:52:21;102111.88;;;8.25;71.30
46534;BME280;32260;52.008;4.752;2022-12-05T12:00:55;102112.00;;;8.38;71.06
46534;BME280;32260;52.008;4.752;2022-12-05T12:06:22;102105.88;;;8.42;71.74
46534;BME280;32260;52.008;4.752;2022-12-05T12:12:25;102114.81;;;8.52;71.33
46534;BME280;32260;52.008;4.752;2022-12-05T12:18:04;102117.44;;;8.52;71.39
46534;BME280;32260;52.008;4.752;2022-12-05T12:27:24;102115.72;;;8.57;71.00
46534;BME280;32260;52.008;4.752;2022-12-05T12:29:41;102109.59;;;8.60;70.80
46534;BME280;32260;52.008;4.752;2022-12-05T12:34:58;102107.84;;;8.63;70.67
46534;BME280;32260;52.008;4.752;2022-12-05T12:41:21;102104.34;;;8.61;71.18
46534;BME280;32260;52.008;4.752;2022-12-05T12:46:21;102102.56;;;8.58;71.15
46534;BME280;32260;52.008;4.752;2022-12-05T12:48:59;102093.66;;;8.50;70.95
46534;BME280;32260;52.008;4.752;2022-12-05T12:51:31;102097.16;;;8.46;70.56
46534;BME280;32260;52.008;4.752;2022-12-05T12:56:46;102097.16;;;8.46;71.10
46534;BME280;32260;52.008;4.752;2022-12-05T12:59:39;102100.69;;;8.47;71.06
46534;BME280;32260;52.008;4.752;2022-12-05T13:07:45;102090.94;;;8.42;71.28
46534;BME280;32260;52.008;4.752;2022-12-05T13:10:33;102096.22;;;8.46;71.12
46534;BME280;32260;52.008;4.752;2022-12-05T13:13:03;102093.56;;;8.44;70.79
46534;BME280;32260;52.008;4.752;2022-12-05T13:15:35;102087.47;;;8.48;71.35
46534;BME280;32260;52.008;4.752;2022-12-05T13:18:11;102098.03;;;8.50;71.38
46534;BME280;32260;52.008;4.752;2022-12-05T13:20:39;102094.56;;;8.54;71.25
46534;BME280;32260;52.008;4.752;2022-12-05T13:23:10;102099.00;;;8.55;70.98
46534;BME280;32260;52.008;4.752;2022-12-05T13:25:39;102094.56;;;8.52;70.57
46534;BME280;32260;52.008;4.752;2022-12-05T13:31:01;102090.09;;;8.47;70.93
46534;BME280;32260;52.008;4.752;2022-12-05T13:33:35;102090.09;;;8.47;71.18
46534;BME280;32260;52.008;4.752;2022-12-05T13:36:08;102094.53;;;8.51;70.91
46534;BME280;32260;52.008;4.752;2022-12-05T13:38:59;102092.75;;;8.47;70.98
46534;BME280;32260;52.008;4.752;2022-12-05T13:41:49;102083.88;;;8.45;71.03
46534;BME280;32260;52.008;4.752;2022-12-05T13:44:54;102090.94;;;8.46;71.04
46534;BME280;32260;52.008;4.752;2022-12-05T13:55:38;102096.31;;;8.52;70.42
46534;BME280;32260;52.008;4.752;2022-12-05T14:01:39;102094.53;;;8.51;70.58
46534;BME280;32260;52.008;4.752;2022-12-05T14:04:00;102094.38;;;8.38;70.55
46534;BME280;32260;52.008;4.752;2022-12-05T14:17:41;102096.03;;;8.27;71.16
46534;BME280;32260;52.008;4.752;2022-12-05T14:23:18;102100.47;;;8.28;71.60
46534;BME280;32260;52.008;4.752;2022-12-05T14:32:37;102103.09;;;8.25;70.82
46534;BME280;32260;52.008;4.752;2022-12-05T14:34:25;102100.47;;;8.30;70.76
46534;BME280;32260;52.008;4.752;2022-12-05T14:37:04;102105.69;;;8.20;71.46
46534;BME280;32260;52.008;4.752;2022-12-05T14:39:41;102106.47;;;8.12;71.44
46534;BME280;32260;52.008;4.752;2022-12-05T14:43:01;102103.91;;;8.21;70.96
46534;BME280;32260;52.008;4.752;2022-12-05T14:58:45;102127.66;;;8.21;71.44
46534;BME280;32260;52.008;4.752;2022-12-05T15:01:33;102130.31;;;8.19;71.54
46534;BME280;32260;52.008;4.752;2022-12-05T15:04:09;102134.66;;;8.13;71.53
46534;BME280;32260;52.008;4.752;2022-12-05T15:12:17;102133.66;;;8.06;71.75
46534;BME280;32260;52.008;4.752;2022-12-05T15:14:56;102136.28;;;8.01;71.61
46534;BME280;32260;52.008;4.752;2022-12-05T15:17:28;102132.72;;;7.98;71.56
46534;BME280;32260;52.008;4.752;2022-12-05T15:19:59;102132.66;;;7.96;72.14
46534;BME280;32260;52.008;4.752;2022-12-05T15:22:29;102137.94;;;7.94;71.69
46534;BME280;32260;52.008;4.752;2022-12-05T15:25:29;102138.88;;;8.00;72.22
46534;BME280;32260;52.008;4.752;2022-12-05T15:28:00;102138.84;;;7.95;71.70
46534;BME280;32260;52.008;4.752;2022-12-05T15:30:28;102132.66;;;7.93;71.92
46534;BME280;32260;52.008;4.752;2022-12-05T15:32:55;102142.34;;;7.92;72.63
46534;BME280;32260;52.008;4.752;2022-12-05T15:35:24;102143.22;;;7.93;72.38
46534;BME280;32260;52.008;4.752;2022-12-05T15:37:56;102140.59;;;7.94;71.90
46534;BME280;32260;52.008;4.752;2022-12-05T15:40:25;102146.69;;;7.89;72.08
46534;BME280;32260;52.008;4.752;2022-12-05T15:42:54;102147.50;;;7.83;72.46
46534;BME280;32260;52.008;4.752;2022-12-05T15:45:23;102141.41;;;7.89;72.07
46534;BME280;32260;52.008;4.752;2022-12-05T15:47:53;102146.69;;;7.89;72.08
46534;BME280;32260;52.008;4.752;2022-12-05T15:50:39;102144.94;;;7.91;71.80
46534;BME280;32260;52.008;4.752;2022-12-05T15:54:27;102153.78;;;7.94;71.83
46534;BME280;32260;52.008;4.752;2022-12-05T15:59:12;102149.41;;;7.95;71.97
46534;BME280;32260;52.008;4.752;2022-12-05T16:01:45;102153.75;;;7.91;72.36
46534;BME280;32260;52.008;4.752;2022-12-05T16:04:23;102148.41;;;7.87;72.89
46534;BME280;32260;52.008;4.752;2022-12-05T16:06:54;102148.41;;;7.85;72.24
46534;BME280;32260;52.008;4.752;2022-12-05T16:09:23;102151.97;;;7.89;72.47
46534;BME280;32260;52.008;4.752;2022-12-05T16:14:35;102153.75;;;7.93;72.62
46534;BME280;32260;52.008;4.752;2022-12-05T16:17:02;102150.19;;;7.88;72.08
46534;BME280;32260;52.008;4.752;2022-12-05T16:19:30;102160.69;;;7.83;72.63
46534;BME280;32260;52.008;4.752;2022-12-05T16:22:05;102153.69;;;7.87;72.54
46534;BME280;32260;52.008;4.752;2022-12-05T16:24:38;102154.56;;;7.86;72.29
46534;BME280;32260;52.008;4.752;2022-12-05T16:27:13;102150.13;;;7.83;72.35
46534;BME280;32260;52.008;4.752;2022-12-05T16:29:40;102155.34;;;7.78;72.17
46534;BME280;32260;52.008;4.752;2022-12-05T16:32:23;102151.06;;;7.90;72.27
46534;BME280;32260;52.008;4.752;2022-12-05T16:34:50;102150.09;;;7.80;73.07
46534;BME280;32260;52.008;4.752;2022-12-05T16:37:26;102153.72;;;7.90;72.97
46534;BME280;32260;52.008;4.752;2022-12-05T16:39:53;102155.47;;;7.89;72.72